KDXR Airport Information

Runway Information
Runway 08 Length 4422 ft width 150 ft
Elevation 457 ft Threshold 368 ft Heading 70
Runway 26 Length 4422 ft Width 150 ft
Elevation 454 ft Threshold 734 ft Heading 250
Runway 17 Length 3135 ft width 100 ft
Elevation 453 ft Threshold 223 ft Heading 153
Runway 35 Length 3135 ft Width 100 ft
Elevation 454 ft Threshold 231 ft Heading 333
Airport Frequencies
Type A/D Name NEW YORK A Frequency 126.4 MHZ
Type ASOS Name ASOS Frequency 127.75 MHZ
Type ATIS Name ATIS Frequency 127.75 MHZ
Type CLD Name CLNC DEL Frequency 128.6 MHZ
Type CTAF Name CTAF Frequency 119.4 MHZ
Type GND Name GND Frequency 121.6 MHZ
Type TWR Name TWR Frequency 119.4 MHZ
Type UNIC Name UNICOM Frequency 122.95 MHZ
Airport Navaids
Airport Weather Information & NOTAM
ADDS - METARS form results

(1759 UTC 20 January 2022)
Data provider http://aviationweather.gov/metar/data/
 
METAR text: KDXR 201753Z 34007KT 10SM BKN080 01/M07 A3013 RMK AO2 SLP203 60006 T00111067 10011 21006 57004
Conditions at: KDXR (DANBURY , CT, US) observed 1753 UTC 20 January 2022
Temperature: 1.1°C (34°F)
Dewpoint: -6.7°C (20°F) [RH = 56%]
Pressure (altimeter): 30.13 inches Hg (1020.4 mb)
[Sea-level pressure: 1020.3 mb]
Winds: from the NNW (340 degrees) at 8 MPH (7 knots; 3.6 m/s)
Visibility: 10 or more miles (16+ km)
Ceiling: 8000 feet AGL
Clouds: broken clouds at 8000 feet AGL
Weather: no significant weather observed at this time